Time;durP1;ratioP1;P1;durP2;ratioP2;P2;SDS_P1;SDS_P2;PMS_P1;PMS_P2;Temp;Humidity;BMP_temperature;BMP_pressure;BME280_temperature;BME280_humidity;BME280_pressure;Samples;Min_cycle;Max_cycle;Signal;HPM_P1;HPM_P2
2021/03/28 00:01:36;;;;;;;25.20;5.90;;;2.20;93.70;;;;;;5012691;28;20060;-67
2021/03/28 00:04:07;;;;;;;28.50;5.55;;;2.20;93.90;;;;;;5013080;28;20363;-67
2021/03/28 00:06:34;;;;;;;19.85;6.13;;;2.20;93.80;;;;;;5014720;28;20316;-67
2021/03/28 00:09:12;;;;;;;22.95;5.45;;;2.30;93.60;;;;;;5012204;28;20033;-67
2021/03/28 00:12:02;;;;;;;22.90;5.30;;;2.20;93.50;;;;;;5012308;28;20018;-67
2021/03/28 00:14:51;;;;;;;21.60;5.95;;;2.20;93.60;;;;;;5018136;28;20028;-68
2021/03/28 00:17:20;;;;;;;30.67;5.25;;;2.20;93.50;;;;;;5011793;28;20026;-68
2021/03/28 00:20:10;;;;;;;28.27;5.55;;;2.20;93.40;;;;;;5007914;28;20037;-67
2021/03/28 00:22:40;;;;;;;18.73;5.10;;;2.30;93.40;;;;;;5013781;28;20033;-67
2021/03/28 00:25:30;;;;;;;24.08;6.07;;;2.30;93.10;;;;;;5011620;28;20045;-67
2021/03/28 00:27:56;;;;;;;21.55;5.50;;;2.20;93.10;;;;;;5016472;28;20029;-67
2021/03/28 00:30:33;;;;;;;26.70;5.63;;;2.20;93.30;;;;;;5013303;28;20026;-67
2021/03/28 00:33:00;;;;;;;15.18;5.35;;;2.30;93.20;;;;;;5012440;28;20076;-67
2021/03/28 00:35:33;;;;;;;22.27;5.60;;;2.20;93.20;;;;;;5013203;28;20025;-67
2021/03/28 00:38:25;;;;;;;21.92;5.03;;;2.30;93.00;;;;;;5011159;28;20029;-66
2021/03/28 00:41:17;;;;;;;24.85;5.20;;;2.30;92.90;;;;;;5012096;28;20730;-67
2021/03/28 00:43:53;;;;;;;33.40;5.47;;;2.30;92.90;;;;;;4979989;28;20025;-67
2021/03/28 00:46:51;;;;;;;16.17;4.55;;;2.30;92.70;;;;;;5014781;28;20037;-67
2021/03/28 00:49:41;;;;;;;20.42;4.90;;;2.30;92.50;;;;;;5005741;28;20044;-66
2021/03/28 00:52:24;;;;;;;22.55;5.13;;;2.20;92.60;;;;;;5011868;28;20029;-67
2021/03/28 00:54:53;;;;;;;20.08;4.85;;;2.20;92.60;;;;;;5012185;28;20186;-67
2021/03/28 00:57:31;;;;;;;18.50;4.43;;;2.20;92.70;;;;;;5010046;28;20347;-67
2021/03/28 01:00:26;;;;;;;21.30;5.00;;;2.20;92.70;;;;;;5011080;28;20080;-67
2021/03/28 01:03:30;;;;;;;21.10;4.88;;;2.10;92.60;;;;;;5003468;28;20498;-67
2021/03/28 01:06:00;;;;;;;25.50;5.35;;;2.10;92.80;;;;;;5012587;28;20038;-68
2021/03/28 01:08:34;;;;;;;20.67;4.60;;;2.10;92.60;;;;;;5011878;28;20017;-67
2021/03/28 01:11:15;;;;;;;14.73;4.40;;;2.10;92.80;;;;;;5015638;28;20033;-66
2021/03/28 01:14:16;;;;;;;32.50;6.00;;;2.10;92.80;;;;;;5016897;28;20033;-66
2021/03/28 01:16:54;;;;;;;24.58;4.57;;;2.10;92.50;;;;;;5014080;28;20033;-67
2021/03/28 01:19:28;;;;;;;22.98;5.00;;;2.10;92.40;;;;;;5018583;28;20029;-67
2021/03/28 01:21:57;;;;;;;27.02;4.60;;;2.10;92.10;;;;;;5015508;28;20029;-67
2021/03/28 01:24:34;;;;;;;19.42;4.78;;;2.00;92.40;;;;;;5017943;28;20056;-67
2021/03/28 01:27:13;;;;;;;15.38;4.65;;;2.00;92.60;;;;;;5013330;28;20058;-68
2021/03/28 01:29:58;;;;;;;19.83;5.00;;;1.90;92.90;;;;;;5011807;28;20116;-68
2021/03/28 01:32:44;;;;;;;22.70;5.97;;;1.90;92.90;;;;;;5014227;28;20093;-66
2021/03/28 01:35:10;;;;;;;19.58;4.75;;;1.90;93.00;;;;;;5014081;28;20052;-68
2021/03/28 01:37:48;;;;;;;28.42;5.28;;;1.90;92.90;;;;;;5013640;28;20030;-65
2021/03/28 01:40:27;;;;;;;15.10;4.80;;;1.90;92.90;;;;;;5017369;28;20029;-68
2021/03/28 01:43:15;;;;;;;24.05;5.55;;;1.90;92.70;;;;;;5014835;28;20018;-67
2021/03/28 01:46:03;;;;;;;15.98;4.88;;;1.90;92.80;;;;;;5014181;28;20029;-67
2021/03/28 01:48:35;;;;;;;19.67;5.10;;;1.80;92.60;;;;;;5016658;28;20498;-67
2021/03/28 01:51:23;;;;;;;13.35;4.72;;;1.80;92.70;;;;;;5011506;28;20835;-67
2021/03/28 01:54:04;;;;;;;24.65;5.28;;;2.00;92.30;;;;;;5020415;28;20029;-66
2021/03/28 01:56:50;;;;;;;24.27;4.80;;;1.90;92.20;;;;;;5011198;28;20072;-67
2021/03/28 01:59:31;;;;;;;14.13;4.40;;;1.90;92.30;;;;;;5021947;28;20560;-66
2021/03/28 02:02:28;;;;;;;19.98;5.68;;;1.90;92.20;;;;;;5014226;28;20046;-67
2021/03/28 02:05:05;;;;;;;20.38;5.35;;;1.80;92.20;;;;;;5013492;28;20504;-67
2021/03/28 02:08:10;;;;;;;17.50;5.40;;;1.80;92.00;;;;;;5019112;28;20034;-66
2021/03/28 02:10:48;;;;;;;19.60;4.82;;;1.80;92.20;;;;;;5013647;28;20091;-68
2021/03/28 02:13:20;;;;;;;21.65;5.65;;;1.80;92.10;;;;;;5014109;28;20029;-67
2021/03/28 02:16:03;;;;;;;25.17;6.00;;;1.80;92.20;;;;;;5009339;28;20040;-67
2021/03/28 02:18:55;;;;;;;22.25;5.28;;;1.80;92.20;;;;;;5008287;28;20439;-67
2021/03/28 02:21:21;;;;;;;23.48;5.65;;;1.80;92.00;;;;;;5014270;28;20025;-67
2021/03/28 02:23:56;;;;;;;17.73;4.60;;;1.80;92.00;;;;;;5012912;28;20100;-67
2021/03/28 02:26:24;;;;;;;23.73;5.45;;;1.80;91.80;;;;;;5025158;28;20501;-67
2021/03/28 02:29:48;;;;;;;23.50;4.97;;;2.00;91.00;;;;;;5023024;28;20037;-67
2021/03/28 02:32:51;;;;;;;20.52;5.28;;;2.00;90.80;;;;;;4992661;28;20041;-67
2021/03/28 02:35:39;;;;;;;21.38;5.05;;;2.00;91.10;;;;;;5011434;28;20036;-67
2021/03/28 02:38:17;;;;;;;14.88;4.60;;;2.00;90.90;;;;;;5012874;28;20025;-67
2021/03/28 02:41:12;;;;;;;24.20;4.15;;;1.90;91.00;;;;;;5010777;28;20029;-67
2021/03/28 02:44:13;;;;;;;15.35;4.78;;;2.00;91.10;;;;;;5024573;28;20037;-68
2021/03/28 02:47:02;;;;;;;17.70;4.53;;;1.90;91.10;;;;;;5017593;28;20037;-67
2021/03/28 02:49:34;;;;;;;15.93;4.55;;;2.00;91.10;;;;;;5008307;28;20379;-66
2021/03/28 02:52:20;;;;;;;16.50;4.53;;;1.90;91.20;;;;;;5013121;28;20033;-67
2021/03/28 02:55:28;;;;;;;18.35;5.43;;;1.90;91.20;;;;;;5012553;28;20026;-67
2021/03/28 02:58:09;;;;;;;17.35;5.05;;;1.90;91.30;;;;;;5017413;28;20157;-67
2021/03/28 03:01:01;;;;;;;20.05;5.13;;;1.90;91.20;;;;;;5013048;28;20113;-67
2021/03/28 03:03:51;;;;;;;27.23;5.38;;;1.90;91.40;;;;;;4998942;28;20077;-67
2021/03/28 03:06:32;;;;;;;20.45;4.97;;;1.90;91.20;;;;;;5013413;28;20021;-67
2021/03/28 03:09:06;;;;;;;18.33;5.05;;;1.80;91.30;;;;;;5011724;28;20033;-67
2021/03/28 03:11:48;;;;;;;14.55;4.80;;;1.90;91.20;;;;;;5028257;28;20040;-66
2021/03/28 03:14:39;;;;;;;18.45;4.72;;;2.00;91.00;;;;;;5017212;28;20104;-67
2021/03/28 03:17:26;;;;;;;20.35;4.47;;;2.00;90.50;;;;;;5009910;28;20084;-66
2021/03/28 03:20:36;;;;;;;17.10;5.00;;;2.10;90.10;;;;;;5014837;28;20067;-66
2021/03/28 03:23:23;;;;;;;14.95;4.72;;;2.10;90.30;;;;;;5001226;28;20061;-67
2021/03/28 03:25:58;;;;;;;19.02;4.95;;;2.10;90.10;;;;;;5012621;28;20091;-67
2021/03/28 03:28:51;;;;;;;16.65;4.93;;;2.10;90.20;;;;;;5011589;28;20403;-67
2021/03/28 03:31:50;;;;;;;18.20;4.30;;;2.10;90.20;;;;;;5006177;28;20101;-67
2021/03/28 03:34:25;;;;;;;20.40;4.20;;;2.30;89.30;;;;;;5011241;28;20084;-67
2021/03/28 03:37:01;;;;;;;18.67;4.70;;;2.30;89.50;;;;;;5015602;28;20036;-68
2021/03/28 03:39:58;;;;;;;17.73;4.32;;;2.30;89.50;;;;;;5011109;28;20088;-67
2021/03/28 03:42:44;;;;;;;13.13;4.03;;;2.30;88.80;;;;;;5016177;28;20125;-66
2021/03/28 03:45:36;;;;;;;11.25;3.85;;;2.30;89.10;;;;;;5017534;28;20026;-67
2021/03/28 03:48:22;;;;;;;25.17;5.00;;;2.30;89.50;;;;;;5012067;28;20034;-67
2021/03/28 03:50:48;;;;;;;13.45;3.88;;;2.30;89.30;;;;;;5015567;28;20022;-67
2021/03/28 03:53:32;;;;;;;13.68;4.28;;;2.30;89.20;;;;;;5009439;28;20548;-67
2021/03/28 03:56:19;;;;;;;17.92;3.85;;;2.40;88.60;;;;;;5011653;28;20104;-67
2021/03/28 03:59:01;;;;;;;17.10;3.85;;;2.30;89.10;;;;;;5016739;28;20034;-67
2021/03/28 04:01:39;;;;;;;14.45;4.07;;;2.40;88.60;;;;;;5013103;28;20083;-67
2021/03/28 04:04:28;;;;;;;18.02;3.85;;;2.30;88.70;;;;;;5014072;28;20092;-66
2021/03/28 04:07:31;;;;;;;14.18;3.78;;;2.40;88.60;;;;;;5013157;28;20045;-67
2021/03/28 04:10:19;;;;;;;17.08;4.35;;;2.40;88.60;;;;;;5008888;28;20397;-67
2021/03/28 04:13:12;;;;;;;15.07;4.57;;;2.40;88.80;;;;;;5014651;28;20459;-67
2021/03/28 04:16:05;;;;;;;12.82;4.13;;;2.40;89.10;;;;;;5006981;28;20036;-67
2021/03/28 04:18:57;;;;;;;18.85;4.22;;;2.40;88.60;;;;;;5006368;28;20038;-68
2021/03/28 04:21:43;;;;;;;15.48;3.80;;;2.40;88.60;;;;;;5008806;28;20040;-66
2021/03/28 04:24:16;;;;;;;16.52;3.97;;;2.50;88.40;;;;;;5010480;28;20026;-66
2021/03/28 04:27:00;;;;;;;14.65;3.85;;;2.50;88.30;;;;;;5014538;28;20422;-66
2021/03/28 04:29:26;;;;;;;15.70;4.07;;;2.50;88.40;;;;;;5011503;28;20014;-66
2021/03/28 04:32:10;;;;;;;19.20;3.85;;;2.60;87.70;;;;;;5010391;28;20097;-65
2021/03/28 04:34:49;;;;;;;11.95;3.47;;;2.60;88.10;;;;;;5009124;28;20026;-67
2021/03/28 04:37:36;;;;;;;15.65;3.70;;;2.60;88.20;;;;;;5017272;28;20086;-66
2021/03/28 04:40:40;;;;;;;16.27;4.25;;;2.70;87.60;;;;;;5011786;28;20448;-67
2021/03/28 04:43:43;;;;;;;13.13;3.20;;;2.70;87.60;;;;;;5006107;28;20568;-67
2021/03/28 04:46:34;;;;;;;12.80;3.50;;;2.70;87.50;;;;;;5016986;28;20033;-67
2021/03/28 04:49:02;;;;;;;13.35;3.58;;;2.70;87.60;;;;;;5025966;28;20336;-67
2021/03/28 04:52:05;;;;;;;11.95;3.50;;;2.70;87.60;;;;;;5018853;28;20052;-67
2021/03/28 04:54:54;;;;;;;13.48;3.58;;;2.80;87.20;;;;;;5017564;28;20037;-68
2021/03/28 04:57:44;;;;;;;15.93;3.58;;;2.80;87.20;;;;;;5025813;28;20037;-68
2021/03/28 05:00:22;;;;;;;18.20;3.40;;;2.80;87.60;;;;;;5012282;28;20028;-67
2021/03/28 05:03:16;;;;;;;16.23;3.50;;;2.80;86.90;;;;;;5014756;28;20265;-67
2021/03/28 05:05:54;;;;;;;18.70;3.83;;;2.80;87.30;;;;;;5015319;28;20666;-67
2021/03/28 05:08:38;;;;;;;13.23;4.03;;;2.80;86.60;;;;;;5012522;28;20079;-67
2021/03/28 05:11:03;;;;;;;21.02;4.03;;;2.90;86.10;;;;;;5012061;28;20046;-67
2021/03/28 05:13:50;;;;;;;12.52;3.35;;;3.00;86.20;;;;;;5020397;28;20029;-67
2021/03/28 05:16:53;;;;;;;10.10;3.28;;;2.90;87.10;;;;;;5013211;28;20387;-68
2021/03/28 05:19:38;;;;;;;14.60;3.53;;;3.00;86.50;;;;;;5012020;28;20018;-66
2021/03/28 05:22:37;;;;;;;19.75;4.28;;;3.10;85.80;;;;;;5015017;28;20102;-67
2021/03/28 05:25:24;;;;;;;8.15;3.28;;;3.10;85.70;;;;;;5011448;28;20090;-67
2021/03/28 05:28:27;;;;;;;12.80;3.78;;;3.10;85.70;;;;;;5026808;28;20102;-67
2021/03/28 05:31:40;;;;;;;13.75;3.65;;;3.20;85.50;;;;;;5013075;28;20022;-67
2021/03/28 05:34:37;;;;;;;14.07;3.75;;;3.30;84.80;;;;;;5015493;28;20434;-67
2021/03/28 05:37:24;;;;;;;10.40;3.47;;;3.30;85.30;;;;;;5006393;28;20028;-68
2021/03/28 05:40:15;;;;;;;14.63;4.32;;;3.30;85.30;;;;;;5009195;28;20394;-68
2021/03/28 05:42:50;;;;;;;15.75;4.20;;;3.40;85.30;;;;;;5017910;28;20434;-67
2021/03/28 05:45:40;;;;;;;20.33;4.65;;;3.40;85.20;;;;;;5011593;28;20026;-67
2021/03/28 05:48:16;;;;;;;11.10;3.50;;;3.40;84.80;;;;;;5010882;28;20453;-67
2021/03/28 05:51:06;;;;;;;15.50;4.05;;;3.60;82.90;;;;;;5013064;28;20021;-66
2021/03/28 05:53:43;;;;;;;14.57;3.70;;;3.60;83.30;;;;;;5022430;28;20052;-67
2021/03/28 05:56:29;;;;;;;15.82;4.40;;;3.60;83.90;;;;;;5007384;28;20018;-67
2021/03/28 05:59:16;;;;;;;9.95;3.25;;;3.70;83.50;;;;;;5015266;28;20096;-67
2021/03/28 06:02:13;;;;;;;17.08;4.07;;;3.70;84.00;;;;;;5011831;28;20080;-68
2021/03/28 06:05:12;;;;;;;16.15;4.35;;;3.80;83.20;;;;;;5008391;28;20161;-67
2021/03/28 06:08:27;;;;;;;13.35;3.75;;;3.80;83.50;;;;;;5013042;28;20097;-66
2021/03/28 06:10:56;;;;;;;12.95;4.13;;;3.90;82.40;;;;;;5006071;28;20435;-67
2021/03/28 06:13:43;;;;;;;10.90;3.53;;;4.00;82.80;;;;;;5014908;28;20034;-66
2021/03/28 06:16:14;;;;;;;12.05;3.28;;;4.00;82.10;;;;;;5006693;28;20030;-66
2021/03/28 06:19:02;;;;;;;11.98;3.30;;;4.10;82.60;;;;;;5009157;28;21005;-67
2021/03/28 06:21:59;;;;;;;14.32;3.80;;;4.10;82.40;;;;;;5010411;28;20504;-67
2021/03/28 06:24:42;;;;;;;14.38;4.43;;;4.10;83.20;;;;;;5008569;28;20026;-67
2021/03/28 06:27:23;;;;;;;9.52;3.65;;;4.10;82.00;;;;;;5015371;28;20022;-67
2021/03/28 06:29:51;;;;;;;19.15;4.55;;;4.10;82.10;;;;;;5009592;28;20049;-67
2021/03/28 06:32:47;;;;;;;11.18;4.03;;;4.20;82.10;;;;;;5015971;28;20022;-67
2021/03/28 06:35:47;;;;;;;12.10;3.58;;;4.20;82.90;;;;;;5014551;28;20540;-67
2021/03/28 06:38:37;;;;;;;12.05;3.47;;;4.30;83.00;;;;;;5004069;28;20038;-67
2021/03/28 06:41:30;;;;;;;14.32;3.17;;;4.50;82.20;;;;;;5012355;28;20592;-67
2021/03/28 06:44:19;;;;;;;11.88;3.08;;;4.60;82.10;;;;;;5018991;28;20072;-66
2021/03/28 06:47:15;;;;;;;9.80;3.45;;;4.60;81.00;;;;;;5012802;28;20049;-67
2021/03/28 06:49:46;;;;;;;10.48;3.25;;;4.70;81.30;;;;;;5011122;28;20490;-67
2021/03/28 06:52:26;;;;;;;13.77;3.90;;;4.70;81.10;;;;;;5007517;28;20036;-68
2021/03/28 06:55:07;;;;;;;13.77;3.63;;;4.70;81.10;;;;;;5008575;28;20022;-66
2021/03/28 06:57:57;;;;;;;17.48;4.10;;;4.70;81.70;;;;;;5024444;28;20037;-66
2021/03/28 07:00:53;;;;;;;10.25;3.72;;;4.70;81.60;;;;;;5006871;28;20076;-67
2021/03/28 07:03:34;;;;;;;13.20;3.92;;;4.80;82.00;;;;;;5012420;28;20101;-67
2021/03/28 07:06:30;;;;;;;9.90;3.87;;;4.80;81.80;;;;;;5010494;28;20053;-65
2021/03/28 07:09:20;;;;;;;13.77;3.50;;;4.80;81.30;;;;;;5005138;28;20034;-64
2021/03/28 07:12:17;;;;;;;10.07;3.65;;;4.90;81.70;;;;;;5009916;28;20064;-65
2021/03/28 07:15:20;;;;;;;15.82;3.67;;;4.90;81.30;;;;;;5013645;28;20026;-65
2021/03/28 07:18:23;;;;;;;16.48;4.20;;;5.00;81.90;;;;;;5008122;28;20034;-65
2021/03/28 07:21:28;;;;;;;10.85;3.88;;;5.10;82.00;;;;;;5010382;28;20075;-65
2021/03/28 07:24:31;;;;;;;14.60;3.83;;;5.20;81.40;;;;;;4983614;28;20158;-64
2021/03/28 07:27:38;;;;;;;9.35;3.53;;;5.30;80.40;;;;;;5013451;28;20021;-65
2021/03/28 07:30:36;;;;;;;11.38;3.63;;;5.50;80.90;;;;;;5005158;28;20038;-66
2021/03/28 07:33:42;;;;;;;13.10;3.70;;;5.60;80.30;;;;;;4997586;28;20034;-66
2021/03/28 07:36:32;;;;;;;13.82;3.95;;;5.70;80.60;;;;;;5004669;28;20116;-65
2021/03/28 07:39:35;;;;;;;10.05;3.15;;;5.90;80.50;;;;;;5007440;28;20434;-65
2021/03/28 07:42:35;;;;;;;10.73;3.33;;;6.00;80.50;;;;;;5009460;28;20529;-66
2021/03/28 07:45:37;;;;;;;12.90;3.53;;;6.10;80.60;;;;;;5008998;28;20484;-65
2021/03/28 07:48:14;;;;;;;13.50;4.20;;;6.20;79.80;;;;;;5009529;28;20030;-66
2021/03/28 07:51:01;;;;;;;11.57;3.38;;;6.30;80.10;;;;;;5008615;28;20026;-66
2021/03/28 07:53:48;;;;;;;10.18;3.72;;;6.40;78.70;;;;;;5012325;28;20584;-66
2021/03/28 07:56:32;;;;;;;11.77;3.85;;;6.30;78.60;;;;;;5005877;28;20063;-65
2021/03/28 07:59:13;;;;;;;8.88;3.50;;;6.40;78.50;;;;;;5008718;28;20041;-65
2021/03/28 08:01:48;;;;;;;12.50;3.78;;;6.40;78.70;;;;;;5008452;28;20117;-66
2021/03/28 08:04:44;;;;;;;12.55;3.80;;;6.50;78.90;;;;;;5010133;28;20034;-66
2021/03/28 08:07:35;;;;;;;11.43;3.55;;;6.50;80.00;;;;;;5010990;28;20069;-65
2021/03/28 08:10:19;;;;;;;;;;;6.80;79.00;;;;;;5007405;28;20044;-65
2021/03/28 08:13:00;;;;;;;9.13;3.33;;;7.10;79.60;;;;;;5039966;28;19917;-65
2021/03/28 08:15:50;;;;;;;12.18;3.42;;;7.30;78.20;;;;;;5015064;28;20026;-64
2021/03/28 08:18:31;;;;;;;11.10;3.78;;;7.50;76.80;;;;;;5009014;28;20140;-65
2021/03/28 08:21:11;;;;;;;8.45;3.25;;;7.70;77.30;;;;;;5013316;28;20028;-66
2021/03/28 08:23:40;;;;;;;13.40;3.10;;;7.90;76.60;;;;;;5006710;28;20045;-66
2021/03/28 08:26:29;;;;;;;11.85;3.28;;;8.10;75.50;;;;;;5013534;28;20108;-67
2021/03/28 08:29:22;;;;;;;12.73;3.33;;;8.30;75.70;;;;;;5018484;28;20025;-66
2021/03/28 08:32:10;;;;;;;9.73;3.10;;;8.20;76.20;;;;;;5011293;28;20034;-66
2021/03/28 08:34:57;;;;;;;9.48;3.13;;;8.10;76.20;;;;;;5019486;28;20819;-65
2021/03/28 08:37:48;;;;;;;14.23;3.60;;;8.30;75.80;;;;;;5022822;28;20018;-67
2021/03/28 08:40:36;;;;;;;11.45;3.25;;;8.30;75.70;;;;;;4985997;28;20049;-67
2021/03/28 08:43:20;;;;;;;9.40;2.88;;;8.50;76.30;;;;;;5012762;28;20025;-65
2021/03/28 08:46:09;;;;;;;12.25;3.47;;;8.40;75.50;;;;;;5010007;28;20060;-65
2021/03/28 08:49:02;;;;;;;13.35;3.20;;;8.60;76.50;;;;;;5011100;28;20091;-66
2021/03/28 08:51:58;;;;;;;9.48;2.83;;;8.60;74.50;;;;;;5015139;28;20022;-67
2021/03/28 08:54:30;;;;;;;8.60;2.75;;;8.60;75.10;;;;;;5010282;28;20548;-66
2021/03/28 08:57:05;;;;;;;10.50;2.88;;;8.70;74.70;;;;;;5018554;28;20552;-66
2021/03/28 09:00:09;;;;;;;11.50;2.90;;;8.70;75.10;;;;;;5005071;28;20041;-66
2021/03/28 09:02:53;;;;;;;12.05;3.45;;;8.70;75.20;;;;;;4996133;28;20044;-66
2021/03/28 09:05:41;;;;;;;11.23;3.10;;;8.80;75.30;;;;;;5003807;28;20030;-66
2021/03/28 09:08:21;;;;;;;9.85;2.83;;;8.90;75.90;;;;;;5012494;28;20030;-66
2021/03/28 09:11:23;;;;;;;9.88;3.10;;;8.80;74.70;;;;;;4999626;28;20531;-66
2021/03/28 09:13:49;;;;;;;9.75;3.13;;;8.70;74.80;;;;;;5007966;28;20033;-66
2021/03/28 09:16:38;;;;;;;7.10;2.92;;;8.80;74.90;;;;;;5011446;28;20030;-66
2021/03/28 09:19:48;;;;;;;11.43;2.92;;;8.80;75.70;;;;;;5005776;28;20516;-66
2021/03/28 09:22:21;;;;;;;7.78;2.95;;;8.80;73.70;;;;;;5007257;28;20306;-66
2021/03/28 09:25:20;;;;;;;12.18;3.08;;;8.80;74.90;;;;;;5010030;28;20598;-65
2021/03/28 09:28:24;;;;;;;10.85;2.50;;;8.90;74.00;;;;;;5019278;28;20035;-66
2021/03/28 09:31:08;;;;;;;12.88;3.20;;;9.10;73.90;;;;;;5015638;28;20021;-66
2021/03/28 09:34:16;;;;;;;11.43;2.42;;;9.20;72.80;;;;;;5009514;28;20463;-67
2021/03/28 09:37:21;;;;;;;8.55;2.22;;;9.10;72.90;;;;;;4989370;28;20444;-66
2021/03/28 09:39:52;;;;;;;9.18;2.50;;;9.20;73.70;;;;;;5007782;28;20088;-67
2021/03/28 09:43:04;;;;;;;10.13;2.85;;;9.40;73.60;;;;;;5010731;28;20108;-66
2021/03/28 09:46:12;;;;;;;12.88;2.40;;;9.30;73.20;;;;;;4969903;28;20245;-67
2021/03/28 09:49:14;;;;;;;7.65;2.38;;;9.30;72.20;;;;;;5014212;28;20112;-67
2021/03/28 09:51:58;;;;;;;10.93;2.75;;;9.30;72.40;;;;;;5016442;28;20053;-66
2021/03/28 09:54:34;;;;;;;8.40;2.45;;;9.60;72.60;;;;;;4993874;28;20061;-67
2021/03/28 09:57:09;;;;;;;7.65;2.38;;;9.80;72.10;;;;;;4986868;28;20034;-66
2021/03/28 09:59:58;;;;;;;9.63;2.35;;;10.00;72.70;;;;;;4985249;28;20038;-67
2021/03/28 10:02:46;;;;;;;11.75;2.80;;;10.00;71.00;;;;;;4985891;28;20030;-66
2021/03/28 10:05:20;;;;;;;11.70;2.80;;;9.80;70.50;;;;;;4988519;28;20085;-67
2021/03/28 10:07:54;;;;;;;13.07;2.75;;;10.00;72.40;;;;;;4987780;28;20571;-66
2021/03/28 10:10:37;;;;;;;10.75;2.78;;;10.00;70.70;;;;;;4987096;28;20034;-66
2021/03/28 10:13:06;;;;;;;8.82;2.60;;;9.90;71.00;;;;;;4998681;28;20050;-67
2021/03/28 10:15:37;;;;;;;7.43;2.35;;;10.00;72.10;;;;;;4986746;28;20037;-66
2021/03/28 10:18:05;;;;;;;9.48;3.13;;;10.00;71.10;;;;;;4983771;28;20166;-66
2021/03/28 10:20:31;;;;;;;8.75;2.90;;;10.00;71.50;;;;;;4988348;28;20026;-67
2021/03/28 10:23:13;;;;;;;7.72;2.35;;;9.90;71.50;;;;;;4985427;28;20399;-68
2021/03/28 10:25:39;;;;;;;9.23;2.30;;;9.90;71.20;;;;;;4987302;28;20044;-67
2021/03/28 10:28:25;;;;;;;6.93;2.50;;;9.90;71.00;;;;;;4988855;28;20022;-67
2021/03/28 10:31:08;;;;;;;10.02;2.65;;;10.00;71.30;;;;;;4989625;28;20065;-67
2021/03/28 10:33:40;;;;;;;10.60;2.85;;;10.10;71.20;;;;;;4984060;28;20051;-67
2021/03/28 10:36:31;;;;;;;10.05;2.97;;;10.10;72.10;;;;;;4986135;28;20033;-67
2021/03/28 10:39:08;;;;;;;10.07;2.47;;;10.10;72.20;;;;;;4983648;28;20542;-67
2021/03/28 10:41:37;;;;;;;14.07;3.33;;;10.30;72.30;;;;;;4986410;28;20034;-66
2021/03/28 10:44:25;;;;;;;8.52;2.22;;;10.30;70.60;;;;;;4988081;28;20576;-67
2021/03/28 10:47:20;;;;;;;6.32;2.15;;;10.30;70.80;;;;;;4989005;28;20113;-68
2021/03/28 10:50:04;;;;;;;7.30;2.20;;;10.50;71.00;;;;;;4970768;28;20050;-67
2021/03/28 10:52:41;;;;;;;10.02;2.50;;;10.50;71.70;;;;;;4989510;28;20029;-67
2021/03/28 10:55:29;;;;;;;7.70;2.50;;;10.50;70.60;;;;;;4988389;28;20022;-67
2021/03/28 10:58:33;;;;;;;8.93;2.65;;;10.40;69.60;;;;;;4987926;28;20042;-67
2021/03/28 11:01:23;;;;;;;10.88;2.70;;;10.40;70.20;;;;;;4958654;28;20446;-67
2021/03/28 11:04:09;;;;;;;9.35;2.90;;;10.50;70.10;;;;;;4986620;28;20030;-67
2021/03/28 11:06:52;;;;;;;9.45;2.92;;;10.60;70.10;;;;;;4987611;28;20384;-67
2021/03/28 11:09:59;;;;;;;8.90;2.95;;;10.80;69.90;;;;;;4985888;28;20091;-68
2021/03/28 11:12:37;;;;;;;6.25;2.25;;;11.10;69.40;;;;;;4980984;28;20035;-67
2021/03/28 11:15:24;;;;;;;6.43;2.15;;;11.30;69.10;;;;;;4983911;28;20030;-69
2021/03/28 11:18:14;;;;;;;9.65;2.55;;;11.30;68.70;;;;;;4985884;28;20529;-67
2021/03/28 11:21:22;;;;;;;7.93;2.35;;;11.30;68.80;;;;;;4994026;28;20387;-68
2021/03/28 11:24:25;;;;;;;7.25;1.98;;;11.30;68.80;;;;;;4987279;28;20085;-67
2021/03/28 11:26:50;;;;;;;10.13;2.65;;;11.00;69.40;;;;;;4989106;28;20034;-67
2021/03/28 11:29:42;;;;;;;9.23;2.15;;;11.00;69.40;;;;;;4984947;28;20040;-67
2021/03/28 11:32:07;;;;;;;;;;;10.90;70.20;;;;;;4987620;28;20039;-67
2021/03/28 11:34:36;;;;;;;10.38;2.72;;;11.00;69.90;;;;;;4987718;28;20397;-68
2021/03/28 11:37:25;;;;;;;8.32;2.17;;;11.10;70.30;;;;;;4985760;28;20027;-68
2021/03/28 11:40:05;;;;;;;9.63;1.80;;;10.90;69.70;;;;;;4984154;28;20109;-68
2021/03/28 11:42:31;;;;;;;9.75;2.20;;;10.80;70.40;;;;;;4987925;28;20049;-67
2021/03/28 11:44:59;;;;;;;6.53;1.75;;;10.70;70.20;;;;;;4987430;28;20022;-67
2021/03/28 11:47:31;;;;;;;8.77;2.10;;;10.60;70.80;;;;;;4985576;28;20037;-67
2021/03/28 11:50:08;;;;;;;6.70;1.98;;;10.60;70.10;;;;;;4985715;28;20103;-67
2021/03/28 11:52:54;;;;;;;7.32;2.08;;;10.60;71.00;;;;;;4988425;28;20105;-67
2021/03/28 11:55:25;;;;;;;8.20;2.35;;;10.70;69.50;;;;;;4957345;28;20442;-67
2021/03/28 11:58:17;;;;;;;9.93;2.30;;;10.80;69.60;;;;;;4987714;28;20026;-67
2021/03/28 12:00:45;;;;;;;9.00;1.70;;;11.10;69.80;;;;;;4979241;28;20402;-67
2021/03/28 12:03:20;;;;;;;12.90;2.38;;;11.30;67.90;;;;;;4970650;28;20451;-67
2021/03/28 12:05:58;;;;;;;8.20;1.88;;;11.40;68.60;;;;;;4985747;28;20415;-68
2021/03/28 12:08:31;;;;;;;8.57;2.08;;;11.40;68.50;;;;;;4983035;28;20030;-67
2021/03/28 12:11:18;;;;;;;7.15;2.20;;;11.30;67.40;;;;;;4980327;28;20026;-67
2021/03/28 12:13:48;;;;;;;11.02;2.33;;;11.40;67.30;;;;;;4983948;28;20582;-66
2021/03/28 12:16:14;;;;;;;9.05;2.05;;;11.50;66.70;;;;;;4986045;28;20076;-67
2021/03/28 12:18:48;;;;;;;4.40;1.85;;;11.50;66.60;;;;;;4979941;28;20143;-66
2021/03/28 12:21:28;;;;;;;7.47;1.90;;;11.40;67.70;;;;;;4982137;28;20026;-67
2021/03/28 12:23:55;;;;;;;8.70;2.30;;;11.60;67.00;;;;;;4984555;28;20034;-67
2021/03/28 12:26:35;;;;;;;6.45;2.33;;;11.30;66.30;;;;;;4986502;28;20030;-67
2021/03/28 12:29:12;;;;;;;8.52;2.53;;;11.10;67.10;;;;;;4996842;28;20035;-67
2021/03/28 12:31:43;;;;;;;9.77;1.90;;;11.40;67.50;;;;;;4986035;28;20479;-67
2021/03/28 12:34:09;;;;;;;8.10;2.50;;;11.60;68.80;;;;;;4985756;28;20508;-67
2021/03/28 12:36:49;;;;;;;8.88;2.80;;;11.60;66.70;;;;;;4984706;28;20011;-68
2021/03/28 12:39:21;;;;;;;5.07;1.90;;;11.50;67.00;;;;;;4983653;28;20042;-68
2021/03/28 12:42:02;;;;;;;6.93;2.20;;;11.40;69.10;;;;;;4982540;28;20042;-67
2021/03/28 12:44:51;;;;;;;10.85;2.42;;;11.10;70.80;;;;;;4985459;28;20129;-68
2021/03/28 12:47:24;;;;;;;9.27;2.58;;;11.00;73.40;;;;;;4984305;28;20035;-68
2021/03/28 12:49:54;;;;;;;8.93;2.22;;;10.80;74.20;;;;;;4983585;28;20132;-67
2021/03/28 12:52:24;;;;;;;5.53;2.23;;;10.60;73.90;;;;;;4985526;28;20026;-67
2021/03/28 12:54:49;;;;;;;7.22;2.60;;;10.50;75.50;;;;;;4985080;28;20233;-68
2021/03/28 12:57:32;;;;;;;9.13;2.90;;;10.40;75.10;;;;;;4986298;28;20113;-67
2021/03/28 13:00:12;;;;;;;5.38;2.30;;;10.40;76.70;;;;;;4984047;28;20026;-67
2021/03/28 13:02:38;;;;;;;7.35;2.67;;;10.50;75.40;;;;;;4983411;28;20041;-68
2021/03/28 13:05:49;;;;;;;8.98;2.42;;;10.50;75.40;;;;;;4984626;28;20026;-67
2021/03/28 13:08:17;;;;;;;6.83;2.37;;;10.50;74.00;;;;;;4974995;28;20037;-68
2021/03/28 13:10:44;;;;;;;10.50;2.85;;;10.50;74.80;;;;;;4986195;28;20651;-67
2021/03/28 13:13:16;;;;;;;7.22;2.45;;;10.50;73.90;;;;;;4988300;28;20110;-67
2021/03/28 13:15:53;;;;;;;4.97;1.83;;;10.40;75.30;;;;;;4988138;28;20038;-67
2021/03/28 13:18:34;;;;;;;9.55;2.47;;;10.20;74.90;;;;;;4986469;28;20026;-67
2021/03/28 13:21:17;;;;;;;10.70;2.73;;;10.10;77.50;;;;;;4989027;28;20023;-67
2021/03/28 13:23:48;;;;;;;10.48;2.75;;;9.90;78.40;;;;;;4982100;28;20037;-67
2021/03/28 13:26:19;;;;;;;4.97;2.33;;;9.80;79.10;;;;;;4989111;28;20058;-67
2021/03/28 13:28:55;;;;;;;6.82;2.25;;;9.70;79.60;;;;;;4989741;28;20026;-66
2021/03/28 13:31:35;;;;;;;7.70;2.35;;;9.60;79.40;;;;;;4988118;28;20035;-67
2021/03/28 13:34:28;;;;;;;11.23;3.10;;;9.50;81.40;;;;;;5001706;28;20034;-66
2021/03/28 13:37:03;;;;;;;4.95;2.10;;;9.40;82.40;;;;;;4987994;28;20033;-66
2021/03/28 13:39:31;;;;;;;9.75;2.60;;;9.30;83.00;;;;;;4986109;28;20077;-67
2021/03/28 13:41:57;;;;;;;8.20;2.55;;;9.20;84.70;;;;;;4987539;28;20041;-67
2021/03/28 13:44:41;;;;;;;10.52;3.35;;;9.10;84.70;;;;;;4986960;28;20022;-67
2021/03/28 13:47:06;;;;;;;11.20;2.78;;;9.20;85.10;;;;;;4986764;28;20579;-67
2021/03/28 13:49:50;;;;;;;7.53;3.10;;;9.10;86.30;;;;;;4986324;28;20175;-67
2021/03/28 13:52:25;;;;;;;9.18;2.80;;;9.10;85.90;;;;;;4981114;28;20062;-67
2021/03/28 13:55:11;;;;;;;10.52;3.22;;;9.10;85.50;;;;;;4985862;28;20034;-67
2021/03/28 13:57:42;;;;;;;11.73;3.33;;;9.10;86.50;;;;;;4987297;28;20038;-67
2021/03/28 14:00:19;;;;;;;8.73;3.20;;;9.10;86.30;;;;;;4984294;28;20126;-67
2021/03/28 14:02:48;;;;;;;9.45;3.10;;;9.10;86.30;;;;;;4985336;28;20109;-66
2021/03/28 14:05:17;;;;;;;10.57;3.13;;;9.10;86.50;;;;;;4986619;28;20038;-67
2021/03/28 14:07:44;;;;;;;12.85;3.28;;;9.20;86.60;;;;;;4986463;28;20097;-67
2021/03/28 14:10:24;;;;;;;8.95;3.33;;;9.20;87.40;;;;;;4981679;28;20026;-67
2021/03/28 14:13:13;;;;;;;10.27;3.33;;;9.30;86.90;;;;;;4984832;28;20532;-66
2021/03/28 14:15:41;;;;;;;7.40;3.58;;;9.30;87.60;;;;;;4984446;28;20049;-67